Terminal Aerodrome Forecast
Issued by NWS

Current Version | Previous Version | Text Only | Print | Product List | Glossary On
Versions: 1 2 3 4 5 6 7 8 9 10 11 12
000
FTUS41 KBTV 281134
TAFPBG
TAF
KPBG 281134Z 2812/2912 VRB03KT P6SM BKN070
     FM281600 07006KT P6SM VCSH BKN080
     FM282300 VRB03KT P6SM VCSH BKN060
     FM290300 00000KT P6SM BKN060=

USA.gov is the U.S. government's official web portal to all federal, state and local government web resources and services.